Time;durP1;ratioP1;P1;durP2;ratioP2;P2;SDS_P1;SDS_P2;PMS_P1;PMS_P2;Temp;Humidity;BMP_temperature;BMP_pressure;BME280_temperature;BME280_humidity;BME280_pressure;Samples;Min_cycle;Max_cycle;Signal;HPM_P1;HPM_P2
2022/06/13 00:00:16;;;;;;;4.65;1.58;;;;;;;;;;5032970;28;20048;-66
2022/06/13 00:02:43;;;;;;;3.45;1.33;;;;;;;;;;5026163;28;20092;-67
2022/06/13 00:05:10;;;;;;;5.80;1.70;;;;;;;;;;5022756;28;20060;-67
2022/06/13 00:07:37;;;;;;;4.20;1.63;;;;;;;;;;5019750;28;20049;-67
2022/06/13 00:10:04;;;;;;;7.30;1.75;;;;;;;;;;5021500;28;20124;-67
2022/06/13 00:12:35;;;;;;;5.97;1.90;;;;;;;;;;5026141;28;20045;-67
2022/06/13 00:15:02;;;;;;;3.88;1.40;;;;;;;;;;5031706;28;20050;-67
2022/06/13 00:17:28;;;;;;;6.40;1.80;;;;;;;;;;5028055;28;20054;-67
2022/06/13 00:19:55;;;;;;;4.93;1.77;;;;;;;;;;5029209;28;20170;-67
2022/06/13 00:22:24;;;;;;;6.50;1.85;;;;;;;;;;5012133;28;20077;-67
2022/06/13 00:24:51;;;;;;;4.68;1.67;;;;;;;;;;5040148;28;21309;-67
2022/06/13 00:27:17;;;;;;;4.65;1.73;;;;;;;;;;5031858;28;20054;-67
2022/06/13 00:29:49;;;;;;;4.97;1.48;;;;;;;;;;5026843;28;20061;-66
2022/06/13 00:32:22;;;;;;;3.30;1.52;;;;;;;;;;5031589;28;20053;-67
2022/06/13 00:34:48;;;;;;;4.68;1.60;;;;;;;;;;5026791;28;20049;-67
2022/06/13 00:37:15;;;;;;;4.90;1.83;;;;;;;;;;5015000;28;20073;-67
2022/06/13 00:39:41;;;;;;;4.13;1.90;;;;;;;;;;5027937;28;20053;-67
2022/06/13 00:42:11;;;;;;;3.63;1.58;;;;;;;;;;5029740;28;20127;-67
2022/06/13 00:44:39;;;;;;;5.07;1.50;;;;;;;;;;5032030;28;20061;-66
2022/06/13 00:47:07;;;;;;;6.47;1.83;;;;;;;;;;5026232;28;20136;-66
2022/06/13 00:49:37;;;;;;;4.20;1.67;;;;;;;;;;5029995;28;20054;-67
2022/06/13 00:52:08;;;;;;;4.55;1.48;;;;;;;;;;5021916;28;20061;-67
2022/06/13 00:54:36;;;;;;;4.85;1.75;;;;;;;;;;5030435;28;20145;-71
2022/06/13 00:57:03;;;;;;;3.72;1.67;;;;;;;;;;5027477;28;20065;-68
2022/06/13 00:59:32;;;;;;;4.28;1.92;;;;;;;;;;5031935;28;20080;-67
2022/06/13 01:02:01;;;;;;;5.00;1.83;;;;;;;;;;5029979;28;20046;-69
2022/06/13 01:04:29;;;;;;;4.63;1.50;;;;;;;;;;5029603;28;20381;-68
2022/06/13 01:06:56;;;;;;;4.90;1.70;;;;;;;;;;5032227;28;20050;-67
2022/06/13 01:11:16;;;;;;;5.28;1.50;;;;;;;;;;5014940;28;20128;-68
2022/06/13 01:12:12;;;;;;;4.45;1.67;;;;;;;;;;5012011;28;20103;-67
2022/06/13 01:15:00;;;;;;;4.65;1.63;;;;;;;;;;5034436;28;20045;-68
2022/06/13 01:17:36;;;;;;;5.35;1.75;;;;;;;;;;5043584;28;20061;-67
2022/06/13 01:20:20;;;;;;;4.70;1.95;;;;;;;;;;5027672;28;20053;-67
2022/06/13 01:23:06;;;;;;;3.20;1.52;;;;;;;;;;5050092;28;20180;-68
2022/06/13 01:25:47;;;;;;;4.40;1.67;;;;;;;;;;5043152;28;20057;-68
2022/06/13 01:28:32;;;;;;;8.95;2.20;;;;;;;;;;4988209;28;20057;-68
2022/06/13 01:31:17;;;;;;;4.88;1.80;;;;;;;;;;5016977;28;20054;-68
2022/06/13 01:33:50;;;;;;;4.57;1.73;;;;;;;;;;5027632;28;20045;-68
2022/06/13 01:36:31;;;;;;;5.72;1.75;;;;;;;;;;5031206;28;20049;-68
2022/06/13 01:39:01;;;;;;;6.18;1.80;;;;;;;;;;5013983;28;20053;-67
2022/06/13 01:41:33;;;;;;;7.85;2.38;;;;;;;;;;5018448;28;20049;-68
2022/06/13 01:44:06;;;;;;;4.18;1.60;;;;;;;;;;5031858;28;20046;-68
2022/06/13 01:46:35;;;;;;;3.47;1.60;;;;;;;;;;5025714;28;20057;-68
2022/06/13 01:49:08;;;;;;;6.25;1.80;;;;;;;;;;5031017;28;20049;-68
2022/06/13 01:51:38;;;;;;;5.45;1.70;;;;;;;;;;5016746;28;20049;-68
2022/06/13 01:54:15;;;;;;;4.03;1.73;;;;;;;;;;5014442;28;20048;-68
2022/06/13 01:56:45;;;;;;;4.85;1.67;;;;;;;;;;5015452;28;20053;-67
2022/06/13 01:59:15;;;;;;;6.10;1.92;;;;;;;;;;5031111;28;20067;-69
2022/06/13 02:02:10;;;;;;;5.72;1.80;;;;;;;;;;5016240;28;20050;-66
2022/06/13 02:04:41;;;;;;;4.70;1.70;;;;;;;;;;4991729;28;20059;-67
2022/06/13 02:07:09;;;;;;;6.47;2.17;;;;;;;;;;4996811;28;20064;-67
2022/06/13 02:09:38;;;;;;;3.33;1.53;;;;;;;;;;5001776;28;20080;-68
2022/06/13 02:12:13;;;;;;;5.22;2.00;;;;;;;;;;5020936;28;20061;-66
2022/06/13 02:14:41;;;;;;;5.38;1.70;;;;;;;;;;5011022;28;20050;-67
2022/06/13 02:17:11;;;;;;;4.60;1.80;;;;;;;;;;5010940;28;20064;-66
2022/06/13 02:19:43;;;;;;;3.20;1.60;;;;;;;;;;5024136;28;20111;-66
2022/06/13 02:22:12;;;;;;;6.25;1.70;;;;;;;;;;5012944;28;20054;-66
2022/06/13 02:24:40;;;;;;;4.85;1.70;;;;;;;;;;5020740;28;20189;-67
2022/06/13 02:27:08;;;;;;;3.70;1.48;;;;;;;;;;4994677;28;20140;-67
2022/06/13 02:29:36;;;;;;;3.92;1.65;;;;;;;;;;5006045;28;20085;-67
2022/06/13 02:34:58;;;;;;;3.95;1.60;;;;;;;;;;5005949;28;20058;-66
2022/06/13 02:37:28;;;;;;;4.15;1.60;;;;;;;;;;5010212;28;20049;-66
2022/06/13 02:39:58;;;;;;;5.70;2.15;;;;;;;;;;5021797;28;20132;-66
2022/06/13 02:42:34;;;;;;;6.70;2.13;;;;;;;;;;5009321;28;20058;-67
2022/06/13 02:45:03;;;;;;;6.47;1.60;;;;;;;;;;5010565;28;20053;-67
2022/06/13 02:47:33;;;;;;;5.88;1.65;;;;;;;;;;5005543;28;20057;-68
2022/06/13 02:50:04;;;;;;;4.90;1.98;;;;;;;;;;5010319;28;20056;-68
2022/06/13 02:52:42;;;;;;;5.70;1.80;;;;;;;;;;5005743;28;20061;-67
2022/06/13 02:55:10;;;;;;;6.10;2.05;;;;;;;;;;5010450;28;20049;-67
2022/06/13 02:57:41;;;;;;;5.60;1.98;;;;;;;;;;5004929;28;20058;-67
2022/06/13 03:00:16;;;;;;;5.63;1.60;;;;;;;;;;5008444;28;20054;-67
2022/06/13 03:02:50;;;;;;;5.13;1.75;;;;;;;;;;5005927;28;20065;-66
2022/06/13 03:05:30;;;;;;;5.13;1.85;;;;;;;;;;5031699;28;20063;-66
2022/06/13 03:07:59;;;;;;;5.90;2.22;;;;;;;;;;5028895;28;20053;-66
2022/06/13 03:10:29;;;;;;;6.63;2.20;;;;;;;;;;5046991;28;20045;-66
2022/06/13 03:12:59;;;;;;;4.63;1.85;;;;;;;;;;5049590;28;20099;-67
2022/06/13 03:15:28;;;;;;;8.25;2.00;;;;;;;;;;5026700;28;20049;-66
2022/06/13 03:17:56;;;;;;;6.85;2.20;;;;;;;;;;5032927;28;20061;-67
2022/06/13 03:20:27;;;;;;;5.70;1.75;;;;;;;;;;5040042;28;20055;-66
2022/06/13 03:23:13;;;;;;;7.95;2.40;;;;;;;;;;5045043;28;20045;-66
2022/06/13 03:25:42;;;;;;;8.57;2.47;;;;;;;;;;5017943;28;20081;-67
2022/06/13 03:28:12;;;;;;;6.05;2.03;;;;;;;;;;5029402;28;20053;-68
2022/06/13 03:30:41;;;;;;;6.25;2.00;;;;;;;;;;5026410;28;20053;-66
2022/06/13 03:35:58;;;;;;;4.63;2.00;;;;;;;;;;5033830;28;20075;-67
2022/06/13 03:38:28;;;;;;;5.43;2.03;;;;;;;;;;5029670;28;20057;-67
2022/06/13 03:40:57;;;;;;;5.63;2.10;;;;;;;;;;5024305;28;20056;-68
2022/06/13 03:43:27;;;;;;;4.60;1.67;;;;;;;;;;5029120;28;20105;-66
2022/06/13 03:45:57;;;;;;;6.40;1.90;;;;;;;;;;5032633;28;20053;-67
2022/06/13 03:48:25;;;;;;;11.55;4.15;;;;;;;;;;5033179;28;20063;-68
2022/06/13 03:51:00;;;;;;;6.38;2.40;;;;;;;;;;5028280;28;20055;-66
2022/06/13 03:53:27;;;;;;;5.97;2.13;;;;;;;;;;5032508;28;20072;-70
2022/06/13 03:55:56;;;;;;;5.80;1.97;;;;;;;;;;5028491;28;20045;-69
2022/06/13 03:58:22;;;;;;;;;;;;;;;;;;5032977;28;20080;-69
2022/06/13 04:00:51;;;;;;;7.80;2.30;;;;;;;;;;5025675;28;19933;-66
2022/06/13 04:03:18;;;;;;;7.88;2.88;;;;;;;;;;5036012;28;20058;-67
2022/06/13 04:05:55;;;;;;;6.65;2.20;;;;;;;;;;5006298;28;20064;-67
2022/06/13 04:08:23;;;;;;;3.85;1.80;;;;;;;;;;5013118;28;20049;-66
2022/06/13 04:10:53;;;;;;;5.32;2.28;;;;;;;;;;5011446;28;20045;-66
2022/06/13 04:13:31;;;;;;;10.20;3.50;;;;;;;;;;4985807;28;20077;-66
2022/06/13 04:16:12;;;;;;;11.18;3.70;;;;;;;;;;4992899;28;20058;-66
2022/06/13 04:18:47;;;;;;;11.90;3.55;;;;;;;;;;5012046;28;20046;-66
2022/06/13 04:21:23;;;;;;;6.93;2.80;;;;;;;;;;5012856;28;20065;-67
2022/06/13 04:23:52;;;;;;;6.85;2.47;;;;;;;;;;5010517;28;20108;-66
2022/06/13 04:26:20;;;;;;;7.38;2.08;;;;;;;;;;4996773;28;20120;-66
2022/06/13 04:28:50;;;;;;;3.95;1.55;;;;;;;;;;5008635;28;20046;-66
2022/06/13 04:31:18;;;;;;;10.60;3.75;;;;;;;;;;5015170;28;20045;-65
2022/06/13 04:33:47;;;;;;;17.65;3.70;;;;;;;;;;5006056;28;20064;-67
2022/06/13 04:36:14;;;;;;;9.55;3.38;;;;;;;;;;5017701;28;20137;-66
2022/06/13 04:38:42;;;;;;;5.85;2.33;;;;;;;;;;5003618;28;20566;-67
2022/06/13 04:41:27;;;;;;;8.25;2.53;;;;;;;;;;4996235;28;20072;-66
2022/06/13 04:43:55;;;;;;;4.35;1.98;;;;;;;;;;5005251;28;20053;-66
2022/06/13 04:46:22;;;;;;;13.32;3.38;;;;;;;;;;5015391;28;20049;-68
2022/06/13 04:48:50;;;;;;;14.18;3.28;;;;;;;;;;5012961;28;20068;-66
2022/06/13 04:51:24;;;;;;;5.05;2.33;;;;;;;;;;4991462;28;20069;-66
2022/06/13 04:53:54;;;;;;;15.38;4.78;;;;;;;;;;5008267;28;20065;-69
2022/06/13 04:56:21;;;;;;;7.40;3.42;;;;;;;;;;5022617;28;20698;-66
2022/06/13 04:58:52;;;;;;;12.48;3.70;;;;;;;;;;5003515;28;20045;-67
2022/06/13 05:01:22;;;;;;;14.30;3.63;;;;;;;;;;5007238;28;20050;-70
2022/06/13 05:03:50;;;;;;;11.90;3.15;;;;;;;;;;5004240;28;20061;-69
2022/06/13 05:06:21;;;;;;;4.85;2.15;;;;;;;;;;5010852;28;20046;-67
2022/06/13 05:08:52;;;;;;;8.00;2.47;;;;;;;;;;5005046;28;20063;-66
2022/06/13 05:11:24;;;;;;;11.23;3.22;;;;;;;;;;5010867;28;20046;-69
2022/06/13 05:13:54;;;;;;;8.82;2.78;;;;;;;;;;5004929;28;20053;-68
2022/06/13 05:16:27;;;;;;;8.55;3.22;;;;;;;;;;5010632;28;20042;-67
2022/06/13 05:19:11;;;;;;;26.17;9.15;;;;;;;;;;5005655;28;20191;-68
2022/06/13 05:21:46;;;;;;;13.40;5.10;;;;;;;;;;5008991;28;20050;-68
2022/06/13 05:24:27;;;;;;;7.40;2.75;;;;;;;;;;5003878;28;20058;-67
2022/06/13 05:26:54;;;;;;;12.32;3.42;;;;;;;;;;5007805;28;20085;-67
2022/06/13 05:29:22;;;;;;;11.20;2.70;;;;;;;;;;5005363;28;20676;-67
2022/06/13 05:31:49;;;;;;;8.07;2.65;;;;;;;;;;5011179;28;20057;-68
2022/06/13 05:34:19;;;;;;;17.35;4.90;;;;;;;;;;5004942;28;20057;-67
2022/06/13 05:36:46;;;;;;;12.38;4.32;;;;;;;;;;5003144;28;20049;-66
2022/06/13 05:39:13;;;;;;;10.48;4.15;;;;;;;;;;5010847;28;20054;-66
2022/06/13 05:42:00;;;;;;;18.85;5.25;;;;;;;;;;5024565;28;20065;-66
2022/06/13 05:44:28;;;;;;;7.53;3.15;;;;;;;;;;5047319;28;20050;-67
2022/06/13 05:46:55;;;;;;;11.63;2.80;;;;;;;;;;5007219;28;20096;-69
2022/06/13 05:49:21;;;;;;;16.75;3.80;;;;;;;;;;5011603;28;20131;-66
2022/06/13 05:51:48;;;;;;;16.42;4.32;;;;;;;;;;5005643;28;20133;-67
2022/06/13 05:54:15;;;;;;;13.52;3.90;;;;;;;;;;5004702;28;20092;-68
2022/06/13 05:56:42;;;;;;;15.13;3.53;;;;;;;;;;5005568;28;20065;-68
2022/06/13 05:59:09;;;;;;;9.77;3.17;;;;;;;;;;5011229;28;20061;-69
2022/06/13 06:01:38;;;;;;;14.27;3.58;;;;;;;;;;5005677;28;20137;-67
2022/06/13 06:04:04;;;;;;;;;;;;;;;;;;5021340;28;20053;-67
2022/06/13 06:06:31;;;;;;;14.75;2.90;;;;;;;;;;5022789;28;19936;-66
2022/06/13 06:08:58;;;;;;;8.77;2.60;;;;;;;;;;5028910;28;20080;-66
2022/06/13 06:11:28;;;;;;;10.77;2.33;;;;;;;;;;5024452;28;20081;-68
2022/06/13 06:13:54;;;;;;;5.72;2.00;;;;;;;;;;5030986;28;20057;-65
2022/06/13 06:16:22;;;;;;;9.82;2.25;;;;;;;;;;5024840;28;20053;-66
2022/06/13 06:18:51;;;;;;;9.52;2.40;;;;;;;;;;5028219;28;20061;-67
2022/06/13 06:21:17;;;;;;;8.32;2.30;;;;;;;;;;5030443;28;20050;-66
2022/06/13 06:23:44;;;;;;;10.65;3.22;;;;;;;;;;5017430;28;20064;-67
2022/06/13 06:26:11;;;;;;;5.43;2.38;;;;;;;;;;5013664;28;20495;-68
2022/06/13 06:28:38;;;;;;;8.00;2.25;;;;;;;;;;5013957;28;20045;-68
2022/06/13 06:31:06;;;;;;;14.63;3.30;;;;;;;;;;5029981;28;20115;-67
2022/06/13 06:33:33;;;;;;;8.50;2.53;;;;;;;;;;5024465;28;20068;-67
2022/06/13 06:36:01;;;;;;;7.07;2.03;;;;;;;;;;5028688;28;20045;-66
2022/06/13 06:38:28;;;;;;;8.20;1.75;;;;;;;;;;5028965;28;20063;-65
2022/06/13 06:40:54;;;;;;;9.80;2.40;;;;;;;;;;5022547;28;20059;-68
2022/06/13 06:43:21;;;;;;;7.32;2.30;;;;;;;;;;5029829;28;20056;-67
2022/06/13 06:45:48;;;;;;;9.00;1.98;;;;;;;;;;5025156;28;20125;-66
2022/06/13 06:48:18;;;;;;;9.30;1.38;;;;;;;;;;5030096;28;20049;-69
2022/06/13 06:50:46;;;;;;;5.53;1.42;;;;;;;;;;5024259;28;20136;-67
2022/06/13 06:53:14;;;;;;;6.57;1.98;;;;;;;;;;5031376;28;20123;-67
2022/06/13 07:01:14;;;;;;;4.60;1.67;;;;;;;;;;5026027;28;20102;-66
2022/06/13 07:03:41;;;;;;;7.13;1.42;;;;;;;;;;5025972;28;20108;-67
2022/06/13 07:06:08;;;;;;;9.02;1.50;;;;;;;;;;5030078;28;20072;-67
2022/06/13 07:08:36;;;;;;;7.00;1.48;;;;;;;;;;5022910;28;20049;-67
2022/06/13 07:14:02;;;;;;;11.43;1.50;;;;;;;;;;5021940;28;20094;-69
2022/06/13 07:16:29;;;;;;;5.75;1.27;;;;;;;;;;5029957;28;20152;-68
2022/06/13 07:18:55;;;;;;;5.10;1.33;;;;;;;;;;5019067;28;20069;-67
2022/06/13 07:21:22;;;;;;;6.25;1.40;;;;;;;;;;5013110;28;20128;-68
2022/06/13 07:23:50;;;;;;;5.63;1.40;;;;;;;;;;5006131;28;20052;-67
2022/06/13 07:26:17;;;;;;;7.22;1.70;;;;;;;;;;5029513;28;20111;-68
2022/06/13 07:28:44;;;;;;;10.10;1.55;;;;;;;;;;5011750;28;20058;-66
2022/06/13 07:31:18;;;;;;;4.72;1.33;;;;;;;;;;5007146;28;20392;-66
2022/06/13 07:33:45;;;;;;;12.50;1.38;;;;;;;;;;5029257;28;20053;-67
2022/06/13 07:36:11;;;;;;;4.70;1.20;;;;;;;;;;5008768;28;20050;-69
2022/06/13 07:38:38;;;;;;;5.22;1.05;;;;;;;;;;5029820;28;20057;-68
2022/06/13 07:41:12;;;;;;;3.15;0.98;;;;;;;;;;5009294;28;20050;-67
2022/06/13 07:43:38;;;;;;;3.33;1.00;;;;;;;;;;5009791;28;20056;-66
2022/06/13 07:46:06;;;;;;;2.83;0.93;;;;;;;;;;5017161;28;20049;-67
2022/06/13 07:48:34;;;;;;;7.53;1.15;;;;;;;;;;5030765;28;20049;-68
2022/06/13 07:51:05;;;;;;;5.00;0.98;;;;;;;;;;5017322;28;20119;-68
2022/06/13 07:53:32;;;;;;;4.65;1.00;;;;;;;;;;5013202;28;20157;-67
2022/06/13 07:55:59;;;;;;;5.82;1.30;;;;;;;;;;5016398;28;20045;-68
2022/06/13 07:58:30;;;;;;;5.93;1.05;;;;;;;;;;5015825;28;20054;-69
2022/06/13 08:01:16;;;;;;;2.17;0.85;;;;;;;;;;5026661;28;20133;-67
2022/06/13 08:03:42;;;;;;;4.55;0.93;;;;;;;;;;5033426;28;20064;-66
2022/06/13 08:06:10;;;;;;;8.93;1.30;;;;;;;;;;5048488;28;20048;-67
2022/06/13 08:08:37;;;;;;;3.30;0.90;;;;;;;;;;5056322;28;20037;-67
2022/06/13 08:11:19;;;;;;;5.88;0.95;;;;;;;;;;5041787;28;20055;-67
2022/06/13 08:13:47;;;;;;;6.85;1.23;;;;;;;;;;5016094;28;20141;-66
2022/06/13 08:16:14;;;;;;;7.53;0.98;;;;;;;;;;5020848;28;20057;-67
2022/06/13 08:18:42;;;;;;;5.45;1.13;;;;;;;;;;5016616;28;20053;-67
2022/06/13 08:21:14;;;;;;;3.85;0.90;;;;;;;;;;5012502;28;20053;-67
2022/06/13 08:23:40;;;;;;;2.67;0.90;;;;;;;;;;5035955;28;20102;-66
2022/06/13 08:26:07;;;;;;;3.63;0.90;;;;;;;;;;5031125;28;20060;-67
2022/06/13 08:28:35;;;;;;;6.78;0.85;;;;;;;;;;5035586;28;20068;-67
2022/06/13 08:31:06;;;;;;;4.35;0.90;;;;;;;;;;5035574;28;20079;-67
2022/06/13 08:33:32;;;;;;;3.78;0.90;;;;;;;;;;5030563;28;20069;-67
2022/06/13 08:35:59;;;;;;;5.47;0.90;;;;;;;;;;5033079;28;20053;-68
2022/06/13 08:38:26;;;;;;;7.85;0.80;;;;;;;;;;5015305;28;20132;-67
2022/06/13 08:41:08;;;;;;;1.92;0.80;;;;;;;;;;5015908;28;20129;-66
2022/06/13 08:43:41;;;;;;;4.35;0.90;;;;;;;;;;5025842;28;20041;-67
2022/06/13 08:46:15;;;;;;;2.70;0.80;;;;;;;;;;5035807;28;20075;-68
2022/06/13 08:48:44;;;;;;;2.33;0.70;;;;;;;;;;5041505;28;20095;-68
2022/06/13 08:51:30;;;;;;;6.63;1.00;;;;;;;;;;5052024;28;20049;-68
2022/06/13 08:53:57;;;;;;;6.05;0.88;;;;;;;;;;4988895;28;20053;-67
2022/06/13 08:56:26;;;;;;;3.05;0.68;;;;;;;;;;5042109;28;20060;-68
2022/06/13 08:58:53;;;;;;;;;;;;;;;;;;5032821;28;20152;-67
2022/06/13 09:01:31;;;;;;;2.13;0.60;;;;;;;;;;5031354;28;19924;-67
2022/06/13 09:04:04;;;;;;;4.90;0.85;;;;;;;;;;5025991;28;20053;-68
2022/06/13 09:06:36;;;;;;;1.63;0.63;;;;;;;;;;5047738;28;20041;-68
2022/06/13 09:09:07;;;;;;;3.70;0.85;;;;;;;;;;5016059;28;20049;-67
2022/06/13 09:11:46;;;;;;;5.47;0.95;;;;;;;;;;5014577;28;20049;-67
2022/06/13 09:14:16;;;;;;;4.88;0.88;;;;;;;;;;5025468;28;20053;-67
2022/06/13 09:16:48;;;;;;;2.22;0.60;;;;;;;;;;5031905;28;20057;-67
2022/06/13 09:19:19;;;;;;;4.72;0.95;;;;;;;;;;5016433;28;20058;-67
2022/06/13 09:21:50;;;;;;;4.43;0.80;;;;;;;;;;5010957;28;20049;-67
2022/06/13 09:24:24;;;;;;;1.63;0.50;;;;;;;;;;5009882;28;20056;-67
2022/06/13 09:26:53;;;;;;;4.47;0.88;;;;;;;;;;4995104;28;20054;-67
2022/06/13 09:29:23;;;;;;;4.80;0.65;;;;;;;;;;5005634;28;20085;-67
2022/06/13 09:31:56;;;;;;;5.45;0.90;;;;;;;;;;5010977;28;20104;-67
2022/06/13 09:34:28;;;;;;;2.70;0.85;;;;;;;;;;5009190;28;20048;-67
2022/06/13 09:36:58;;;;;;;1.98;0.70;;;;;;;;;;5011602;28;20054;-68
2022/06/13 09:39:24;;;;;;;1.83;0.70;;;;;;;;;;5008626;28;20071;-67
2022/06/13 09:41:58;;;;;;;2.85;0.90;;;;;;;;;;5029306;28;20129;-67
2022/06/13 09:44:31;;;;;;;3.40;0.65;;;;;;;;;;5020013;28;20065;-67
2022/06/13 09:47:05;;;;;;;4.63;0.75;;;;;;;;;;5009799;28;20050;-67
2022/06/13 09:49:36;;;;;;;5.53;0.82;;;;;;;;;;5006519;28;20064;-67
2022/06/13 09:52:19;;;;;;;3.83;0.70;;;;;;;;;;5011699;28;20127;-67
2022/06/13 09:54:49;;;;;;;11.73;0.90;;;;;;;;;;5005874;28;20096;-67
2022/06/13 09:57:21;;;;;;;3.40;0.60;;;;;;;;;;5011081;28;20134;-67
2022/06/13 09:59:57;;;;;;;5.22;0.80;;;;;;;;;;5005028;28;20058;-67
2022/06/13 10:02:30;;;;;;;2.75;0.73;;;;;;;;;;5011185;28;20046;-67
2022/06/13 10:05:01;;;;;;;4.40;0.70;;;;;;;;;;5002823;28;20133;-68
2022/06/13 10:07:34;;;;;;;2.33;0.80;;;;;;;;;;5006660;28;20069;-68
2022/06/13 10:10:03;;;;;;;4.18;0.80;;;;;;;;;;5002723;28;20133;-67
2022/06/13 10:12:37;;;;;;;3.08;0.93;;;;;;;;;;5004661;28;20046;-67
2022/06/13 10:15:18;;;;;;;10.70;1.10;;;;;;;;;;5043827;28;20061;-67
2022/06/13 10:17:52;;;;;;;1.98;0.68;;;;;;;;;;5024451;28;20047;-67
2022/06/13 10:20:23;;;;;;;5.30;1.10;;;;;;;;;;4991390;28;20108;-68
2022/06/13 10:23:00;;;;;;;1.70;0.70;;;;;;;;;;5003879;28;20068;-68
2022/06/13 10:25:34;;;;;;;2.88;0.80;;;;;;;;;;5030286;28;20054;-68
2022/06/13 10:28:05;;;;;;;5.47;1.00;;;;;;;;;;5007257;28;20054;-68
2022/06/13 10:30:42;;;;;;;6.65;0.88;;;;;;;;;;5009289;28;20050;-68
2022/06/13 10:33:19;;;;;;;4.65;0.85;;;;;;;;;;5002630;28;20061;-68
2022/06/13 10:35:48;;;;;;;1.75;0.70;;;;;;;;;;5036241;28;20137;-68
2022/06/13 10:38:33;;;;;;;6.10;1.05;;;;;;;;;;5008409;28;20076;-68
2022/06/13 10:41:01;;;;;;;9.40;0.80;;;;;;;;;;5006404;28;20115;-68
2022/06/13 10:43:30;;;;;;;1.33;0.70;;;;;;;;;;4989827;28;20081;-68
2022/06/13 10:45:56;;;;;;;3.72;0.88;;;;;;;;;;5002629;28;20052;-68
2022/06/13 10:48:26;;;;;;;4.22;1.05;;;;;;;;;;5043775;28;20053;-68
2022/06/13 10:50:54;;;;;;;5.55;1.23;;;;;;;;;;5004055;28;20238;-68
2022/06/13 10:53:20;;;;;;;;;;;;;;;;;;5001128;28;20050;-68
2022/06/13 10:55:48;;;;;;;3.30;0.75;;;;;;;;;;5003828;28;19929;-68
2022/06/13 10:58:18;;;;;;;3.30;0.75;;;;;;;;;;5009363;28;20045;-68
2022/06/13 11:01:03;;;;;;;1.40;0.57;;;;;;;;;;5007619;28;20054;-68
2022/06/13 11:03:34;;;;;;;2.38;0.70;;;;;;;;;;5021322;28;20057;-60
2022/06/13 11:06:04;;;;;;;4.30;0.98;;;;;;;;;;5002875;28;20135;-62
2022/06/13 11:08:31;;;;;;;2.53;0.75;;;;;;;;;;5012851;28;20062;-64
2022/06/13 11:10:58;;;;;;;9.15;1.00;;;;;;;;;;5007511;28;20145;-63
2022/06/13 11:13:26;;;;;;;3.17;0.67;;;;;;;;;;5002554;28;20053;-62
2022/06/13 11:24:17;;;;;;;4.47;0.75;;;;;;;;;;5007021;28;20048;-63
2022/06/13 16:19:45;;;;;;;4.38;0.90;;;;;;;;;;678431;23;20348;-64
2022/06/13 16:22:17;;;;;;;5.18;1.10;;;;;;;;;;4933601;29;20063;-67
2022/06/13 16:24:44;;;;;;;3.03;0.85;;;;;;;;;;4930952;29;20122;-68
2022/06/13 16:27:12;;;;;;;4.20;0.80;;;;;;;;;;4950521;29;20069;-67
2022/06/13 16:29:40;;;;;;;13.13;1.67;;;;;;;;;;4929870;29;20210;-67
2022/06/13 16:32:07;;;;;;;4.95;0.90;;;;;;;;;;4949225;29;20047;-67
2022/06/13 16:34:34;;;;;;;7.07;1.13;;;;;;;;;;4930495;28;20729;-67
2022/06/13 16:37:02;;;;;;;7.55;1.23;;;;;;;;;;4934043;29;20063;-68
2022/06/13 16:39:35;;;;;;;8.23;1.02;;;;;;;;;;4931228;29;20055;-70
2022/06/13 16:42:07;;;;;;;10.48;1.10;;;;;;;;;;4952619;28;20061;-70
2022/06/13 16:44:36;;;;;;;3.42;1.00;;;;;;;;;;4949642;29;20059;-70
2022/06/13 16:47:05;;;;;;;4.35;1.00;;;;;;;;;;4932335;29;20062;-70
2022/06/13 16:49:33;;;;;;;6.22;1.00;;;;;;;;;;4932905;29;20133;-70
2022/06/13 16:52:02;;;;;;;5.95;0.98;;;;;;;;;;4929513;29;20055;-70
2022/06/13 16:54:34;;;;;;;7.47;1.15;;;;;;;;;;4932684;29;20066;-70
2022/06/13 16:57:12;;;;;;;4.38;1.00;;;;;;;;;;4946463;28;20110;-70
2022/06/13 16:59:49;;;;;;;7.22;1.20;;;;;;;;;;4932506;29;20067;-70
2022/06/13 17:02:16;;;;;;;4.13;0.73;;;;;;;;;;4929735;29;20061;-70
2022/06/13 17:04:43;;;;;;;3.90;0.80;;;;;;;;;;4949743;29;20058;-70
2022/06/13 17:07:12;;;;;;;11.65;1.30;;;;;;;;;;4944507;28;20115;-70
2022/06/13 17:09:54;;;;;;;6.10;1.80;;;;;;;;;;4932572;29;20135;-70
2022/06/13 17:12:22;;;;;;;8.27;1.23;;;;;;;;;;4927821;29;20051;-70
2022/06/13 17:14:54;;;;;;;3.30;1.10;;;;;;;;;;4948115;29;20047;-70
2022/06/13 17:17:22;;;;;;;5.25;1.00;;;;;;;;;;4945128;28;20047;-70
2022/06/13 17:19:49;;;;;;;3.28;0.93;;;;;;;;;;4947904;28;20051;-70
2022/06/13 17:22:16;;;;;;;3.88;0.88;;;;;;;;;;4944632;28;20050;-70
2022/06/13 17:24:44;;;;;;;2.80;0.70;;;;;;;;;;4933823;28;20043;-70
2022/06/13 17:32:41;;;;;;;6.25;1.02;;;;;;;;;;4946034;28;20181;-70
2022/06/13 17:35:08;;;;;;;3.95;1.10;;;;;;;;;;4948178;29;20051;-71
2022/06/13 17:37:36;;;;;;;6.00;1.05;;;;;;;;;;4927405;29;20055;-70
2022/06/13 17:40:03;;;;;;;7.38;1.02;;;;;;;;;;4934011;29;20062;-70
2022/06/13 17:42:30;;;;;;;5.30;0.90;;;;;;;;;;4946732;28;20051;-70
2022/06/13 17:44:59;;;;;;;3.83;1.17;;;;;;;;;;4932277;29;20043;-70
2022/06/13 17:47:25;;;;;;;;;;;;;;;;;;4929964;28;20149;-71
2022/06/13 17:49:52;;;;;;;4.32;1.20;;;;;;;;;;4932899;29;19933;-70
2022/06/13 17:52:19;;;;;;;8.57;1.60;;;;;;;;;;4929344;29;20063;-70
2022/06/13 17:54:46;;;;;;;2.88;0.93;;;;;;;;;;4933234;29;20047;-70
2022/06/13 17:57:14;;;;;;;4.47;0.98;;;;;;;;;;4933422;29;20146;-70
2022/06/13 17:59:41;;;;;;;3.45;0.90;;;;;;;;;;4945213;28;20061;-70
2022/06/13 18:02:11;;;;;;;3.53;0.93;;;;;;;;;;4932046;29;20047;-70
2022/06/13 18:04:39;;;;;;;2.70;0.90;;;;;;;;;;4923218;29;20082;-70
2022/06/13 18:07:06;;;;;;;2.55;0.82;;;;;;;;;;4948084;28;20145;-71
2022/06/13 18:09:35;;;;;;;4.80;1.60;;;;;;;;;;4938764;28;20047;-69
2022/06/13 18:12:02;;;;;;;3.95;1.00;;;;;;;;;;4931741;29;20086;-69
2022/06/13 18:14:28;;;;;;;10.23;1.60;;;;;;;;;;4940878;29;20051;-70
2022/06/13 18:16:55;;;;;;;9.18;1.75;;;;;;;;;;4948254;29;20051;-71
2022/06/13 18:19:25;;;;;;;4.75;1.30;;;;;;;;;;4927702;28;20054;-70
2022/06/13 18:21:52;;;;;;;3.58;0.90;;;;;;;;;;4947124;28;20047;-69
2022/06/13 18:24:20;;;;;;;2.97;0.93;;;;;;;;;;4932795;29;20052;-70
2022/06/13 18:26:47;;;;;;;10.07;1.40;;;;;;;;;;4923829;29;20060;-70
2022/06/13 18:29:14;;;;;;;6.25;1.08;;;;;;;;;;4947577;29;20322;-69
2022/06/13 18:31:42;;;;;;;7.72;1.38;;;;;;;;;;4922218;29;20047;-69
2022/06/13 18:34:09;;;;;;;7.03;1.37;;;;;;;;;;4931465;29;20055;-69
2022/06/13 18:36:37;;;;;;;4.93;1.27;;;;;;;;;;4923021;28;20047;-69
2022/06/13 18:39:05;;;;;;;3.60;1.10;;;;;;;;;;4931765;29;20067;-71
2022/06/13 18:41:32;;;;;;;4.43;1.13;;;;;;;;;;4946480;29;20250;-69
2022/06/13 18:44:01;;;;;;;5.00;1.05;;;;;;;;;;4926619;29;20059;-69
2022/06/13 18:46:31;;;;;;;2.83;0.90;;;;;;;;;;4948458;29;20051;-69
2022/06/13 18:48:59;;;;;;;4.63;1.05;;;;;;;;;;4925786;29;20066;-69
2022/06/13 18:51:28;;;;;;;7.50;1.38;;;;;;;;;;4929737;29;20051;-69
2022/06/13 18:53:56;;;;;;;4.53;1.00;;;;;;;;;;4940987;28;20050;-70
2022/06/13 18:56:23;;;;;;;5.18;1.05;;;;;;;;;;4932289;29;20081;-70
2022/06/13 18:58:50;;;;;;;4.07;1.35;;;;;;;;;;4940424;28;20066;-70
2022/06/13 19:01:17;;;;;;;6.18;1.15;;;;;;;;;;4933350;28;20042;-69
2022/06/13 19:03:45;;;;;;;3.58;1.15;;;;;;;;;;4932868;29;20055;-70
2022/06/13 19:06:13;;;;;;;3.70;1.05;;;;;;;;;;4924842;29;20067;-68
2022/06/13 19:08:40;;;;;;;5.70;1.20;;;;;;;;;;4947210;29;20063;-67
2022/06/13 19:11:09;;;;;;;3.95;1.13;;;;;;;;;;4923100;29;20051;-67
2022/06/13 19:13:38;;;;;;;3.78;1.30;;;;;;;;;;4948036;29;20055;-67
2022/06/13 19:16:05;;;;;;;9.75;1.85;;;;;;;;;;4923981;28;20114;-67
2022/06/13 19:18:32;;;;;;;3.45;1.02;;;;;;;;;;4931538;29;20063;-67
2022/06/13 19:20:59;;;;;;;4.73;1.00;;;;;;;;;;4927382;28;20134;-67
2022/06/13 19:23:26;;;;;;;2.47;1.13;;;;;;;;;;4943837;28;20086;-67
2022/06/13 19:25:54;;;;;;;4.97;1.05;;;;;;;;;;4931677;29;20154;-67
2022/06/13 19:28:24;;;;;;;2.15;1.05;;;;;;;;;;4922421;29;20059;-67
2022/06/13 19:30:51;;;;;;;3.72;1.08;;;;;;;;;;4932009;29;20062;-67
2022/06/13 19:33:19;;;;;;;3.38;1.10;;;;;;;;;;4938516;28;20091;-67
2022/06/13 19:35:48;;;;;;;3.35;1.00;;;;;;;;;;4930445;29;20168;-68
2022/06/13 19:38:18;;;;;;;8.45;2.22;;;;;;;;;;4923994;28;20059;-68
2022/06/13 19:40:46;;;;;;;4.18;1.30;;;;;;;;;;4931385;29;20063;-67
2022/06/13 19:43:15;;;;;;;6.85;1.60;;;;;;;;;;4932758;29;20046;-67
2022/06/13 19:45:43;;;;;;;2.22;1.10;;;;;;;;;;4926113;29;20083;-67
2022/06/13 19:48:09;;;;;;;6.65;1.40;;;;;;;;;;4935096;29;20118;-67
2022/06/13 19:50:38;;;;;;;3.33;1.17;;;;;;;;;;4925627;29;20050;-67
2022/06/13 19:53:06;;;;;;;6.63;1.55;;;;;;;;;;4935997;29;20055;-67
2022/06/13 19:55:33;;;;;;;;;;;;;;;;;;4946860;28;20059;-67
2022/06/13 19:58:00;;;;;;;9.35;1.33;;;;;;;;;;4935492;29;19937;-67
2022/06/13 20:00:28;;;;;;;5.43;1.13;;;;;;;;;;4947807;28;20130;-67
2022/06/13 20:02:56;;;;;;;;;;;;;;;;;;4945227;28;20093;-67
2022/06/13 20:05:24;;;;;;;;;;;;;;;;;;4934500;29;19926;-67
2022/06/13 20:10:33;;;;;;;4.10;1.00;;;;;;;;;;4924498;29;20065;-67
2022/06/13 20:13:02;;;;;;;4.27;1.10;;;;;;;;;;4927532;29;20066;-67
2022/06/13 20:15:30;;;;;;;2.35;0.90;;;;;;;;;;4952208;29;20051;-67
2022/06/13 20:17:58;;;;;;;3.80;0.85;;;;;;;;;;4926916;29;20051;-67
2022/06/13 20:20:26;;;;;;;4.05;1.13;;;;;;;;;;4934489;29;20058;-67
2022/06/13 20:22:54;;;;;;;4.95;1.00;;;;;;;;;;4931660;28;20172;-67